Palmyra, VA (22963)

12:28 PM EST on February 08, 2016 (GMT -0500)
Paynes Mill Rd | | Change Station
CLOSE
Current Station
Personal Weather Station
Location: Troy, VA
Elevation: 446 ft
Nearby Weather Stations

Elev 446 ft 37.98 °N, 78.29 °W | Updated 1 second ago

Clear
Clear
46.0 °F
Feels Like 46 °F
N
2.7
Wind Variable Wind from SW
Gusts 3.8 mph

Today
High -- | Low -- °F
--% Chance of Precip.
Yesterday
High -- | Low -- °F
Precip. -- in
Pressure 29.75 in
Visibility 10.0 miles
Clouds Clear
Windchill 46 °F
Dew Point 23 °F
Humidity 40%
Rainfall 0.00 in
Snow Depth Not available.
7:11 AM 5:43 PM
New Moon, 0% visible
METAR KCHO 081653Z 00000KT 10SM CLR 07/M06 A2974 RMK AO2 SLP073 T00671061
Pressure 29.75 in
Visibility 10.0 miles
Clouds Clear
Windchill 46 °F
Dew Point 23 °F
Humidity 40%
Rainfall 0.00 in
Snow Depth Not available.
7:11 AM 5:43 PM
New Moon, 0% visible
METAR KCHO 081653Z 00000KT 10SM CLR 07/M06 A2974 RMK AO2 SLP073 T00671061

10-Day Weather Forecast

Almanac

Astronomy

Feb. 08, 2016 Rise Set
Actual Time
Civil Twilight
Nautical Twilight
Astronomical Twilight
Moon
Length of Visible Light
Length of Day
Tomorrow will be .
, % of the Moon is Illuminated

Today's Extremes

State Highs State Lows

Community

WunderPhotos

Upload Photos

1,891,471 photos uploaded!

WunderBlog® & News

Nearby

Air Quality

  Air Quality AQ Index Pollutant
Not available.

Snow Depth

Station Depth Elevation

Earthquake Activity

City Distance Mag. Time & Date
Minimum magnitude displayed is 2.5.

Coastal Water Temperatures

Place Temperature

Stations

Nearby Weather Stations

Station Location Temp. Windchill Dew Point Humidity Wind Precip. Elev Updated Type
                   

Watches & Warnings

There are currently no watches in effect.